Data for 04/18/2008

Time Sea-Level Adjusted Pressure Absolute Pressure Temperature Relative Humidity Dew Point   
(mb) (inHg) (mb) (inHg) (C) (F) (%) (C) (F)
00:05 1014 29.94 844 24.92 6.7 44 47 -3.7 25.3
00:10 1014 29.94 844 24.92 6.7 44.1 48 -3.6 25.6
00:15 1014 29.94 844 24.92 6.6 44 47 -3.7 25.3
00:20 1014 29.94 843 24.89 6.8 44.3 46 -4 24.8
00:25 1014 29.94 843 24.89 7.1 44.8 45 -3.9 25
00:30 1014 29.94 844 24.92 7.1 44.8 45 -4 24.9
00:35 1014 29.94 844 24.92 7.1 44.8 45 -4 24.7
00:40 1014 29.94 844 24.92 7.1 44.8 45 -3.9 25
00:45 1014 29.94 844 24.92 7 44.5 47 -3.7 25.3
00:50 1014 29.94 844 24.92 6.7 44.1 48 -3.4 25.8
00:55 1014 29.94 844 24.92 6.4 43.6 49 -3.4 25.8
01:00 1014 29.94 844 24.92 6.2 43.2 50 -3.5 25.8
01:05 1014 29.94 844 24.92 6.1 43.1 50 -3.5 25.7
01:10 1014 29.94 844 24.92 6.1 43.1 50 -3.5 25.6
01:15 1014 29.94 844 24.92 6.1 43 50 -3.6 25.6
01:20 1015 29.97 844 24.92 6.2 43.1 49 -3.6 25.5
01:25 1014 29.94 844 24.92 6.2 43.1 49 -3.8 25.2
01:30 1014 29.94 844 24.92 6.4 43.5 47 -4 24.9
01:35 1014 29.94 844 24.92 6.6 43.9 47 -4 24.8
01:40 1014 29.94 844 24.92 6.7 44 46 -4 24.7
01:45 1014 29.94 844 24.92 6.7 44 46 -4.1 24.6
01:50 1014 29.94 844 24.92 6.7 44 46 -4.1 24.5
01:55 1014 29.94 843 24.89 6.7 44.1 46 -4.2 24.5
02:00 1014 29.94 843 24.89 6.7 44.1 46 -4.1 24.6
02:05 1014 29.94 843 24.89 6.6 43.8 46 -4.1 24.6
02:10 1014 29.94 843 24.89 6 42.9 49 -3.8 25.1
02:15 1014 29.94 843 24.89 5.4 41.7 51 -4.1 24.7
02:20 1014 29.94 843 24.89 5.2 41.4 51 -4.2 24.5
02:25 1014 29.94 843 24.89 5.4 41.7 52 -3.5 25.6
02:30 1014 29.94 843 24.89 4.5 40.1 55 -3.7 25.3
02:35 1014 29.94 843 24.89 4.2 39.6 56 -3.9 25
02:40 1014 29.94 843 24.89 4.2 39.5 56 -3.7 25.3
02:45 1014 29.94 843 24.89 3.9 39 58 -3.7 25.4
02:50 1014 29.94 843 24.89 3.6 38.4 59 -3.6 25.5
02:55 1014 29.94 843 24.89 3.3 37.9 61 -3.6 25.5
03:00 1014 29.94 843 24.89 3.1 37.5 62 -3.6 25.6
03:05 1014 29.94 843 24.89 2.9 37.3 63 -3.5 25.7
03:10 1014 29.94 843 24.89 2.7 36.9 63 -3.5 25.6
03:15 1014 29.94 843 24.89 2.7 36.9 64 -3.4 25.8
03:20 1014 29.94 843 24.89 2.7 36.8 64 -3.5 25.8
03:25 1014 29.94 843 24.89 2.8 37.1 62 -3.7 25.4
03:30 1014 29.94 843 24.89 3.1 37.6 61 -3.6 25.5
03:35 1014 29.94 843 24.89 3.1 37.6 61 -3.7 25.4
03:40 1014 29.94 843 24.89 2.9 37.2 62 -3.6 25.6
03:45 1014 29.94 843 24.89 2.6 36.7 63 -3.7 25.3
03:50 1014 29.94 843 24.89 2.7 36.9 63 -3.7 25.3
03:55 1014 29.94 843 24.89 2.9 37.3 61 -3.9 25
04:00 1014 29.94 843 24.89 2.8 37.1 62 -3.7 25.3
04:05 1014 29.94 843 24.89 2.8 37 61 -3.9 25
04:10 1014 29.94 843 24.89 2.8 37 64 -3.4 25.9
04:15 1014 29.94 843 24.89 2.3 36.1 64 -3.9 25.1
04:20 1014 29.94 843 24.89 2.7 36.9 63 -3.6 25.6
04:25 1014 29.94 843 24.89 2.4 36.3 64 -3.6 25.5
04:30 1014 29.94 843 24.89 2.3 36.1 64 -3.9 25
04:35 1014 29.94 843 24.89 2.5 36.5 63 -3.8 25.2
04:40 1014 29.94 843 24.89 2.6 36.7 61 -4.1 24.6
04:45 1014 29.94 843 24.89 3 37.5 61 -3.8 25.2
04:50 1014 29.94 843 24.89 2.6 36.6 63 -3.7 25.4
04:55 1014 29.94 843 24.89 2 35.6 65 -4 24.9
05:00 1013 29.91 843 24.89 2.1 35.8 64 -4 24.8
05:05 1013 29.91 843 24.89 2.2 35.9 64 -3.9 24.9
05:10 1013 29.91 843 24.89 2.2 36 64 -4 24.8
05:15 1013 29.91 843 24.89 2.3 36.1 63 -4 24.9
05:20 1013 29.91 843 24.89 2.3 36.1 63 -4 24.8
05:25 1013 29.91 842 24.86 2.3 36.1 63 -4.1 24.7
05:30 1013 29.91 842 24.86 2.2 36 63 -4.1 24.7
05:35 1013 29.91 842 24.86 2.2 35.9 63 -4.1 24.6
05:40 1013 29.91 842 24.86 2.1 35.9 64 -4.1 24.7
05:45 1013 29.91 842 24.86 2 35.6 64 -4.2 24.5
05:50 1013 29.91 842 24.86 2 35.6 64 -4.2 24.5
05:55 1013 29.91 842 24.86 2 35.6 63 -4.2 24.4
06:00 1013 29.91 842 24.86 2.1 35.7 63 -4.2 24.4
06:05 1013 29.91 842 24.86 2.1 35.7 63 -4.2 24.4
06:10 1013 29.91 842 24.86 2 35.6 63 -4.3 24.3
06:15 1013 29.91 842 24.86 2 35.6 63 -4.3 24.3
06:20 1013 29.91 842 24.86 2 35.6 63 -4.3 24.3
06:25 1013 29.91 842 24.86 2.1 35.8 62 -4.4 24.2
06:30 1013 29.91 842 24.86 2.2 35.9 63 -4.2 24.4
06:35 1013 29.91 842 24.86 2 35.7 63 -4.4 24.2
06:40 1013 29.91 842 24.86 2.2 36 62 -4.3 24.2
06:45 1013 29.91 842 24.86 2.3 36.2 61 -4.4 24
06:50 1013 29.91 842 24.86 2.6 36.6 60 -4.4 24.2
06:55 1013 29.91 842 24.86 2.6 36.7 60 -4.5 24
07:00 1013 29.91 842 24.86 3 37.4 58 -4.4 24
07:05 1013 29.91 842 24.86 3.4 38 57 -4.4 24
07:10 1013 29.91 842 24.86 3.6 38.4 56 -4.4 24
07:15 1013 29.91 842 24.86 3.7 38.7 56 -4.3 24.2
07:20 1013 29.91 842 24.86 3.8 38.9 55 -4.3 24.2
07:25 1013 29.91 842 24.86 4.1 39.4 55 -4.2 24.5
07:30 1013 29.91 842 24.86 4.2 39.5 54 -4.3 24.2
07:35 1013 29.91 842 24.86 4.5 40.2 52 -4.4 24.1
07:40 1013 29.91 842 24.86 4.8 40.6 52 -4.2 24.4
07:45 1013 29.91 842 24.86 4.8 40.6 53 -4.1 24.6
07:50 1013 29.91 842 24.86 4.9 40.8 52 -4.2 24.4
07:55 1013 29.91 842 24.86 5.2 41.4 51 -4.1 24.6
08:00 1012 29.88 842 24.86 5.5 41.9 50 -4 24.9
08:05 1012 29.88 842 24.86 5.8 42.4 50 -4 24.9
08:10 1012 29.88 842 24.86 6 42.8 48 -4 24.7
08:15 1012 29.88 842 24.86 6.3 43.3 48 -4 24.8
08:20 1012 29.88 842 24.86 6.7 44.1 46 -4.2 24.4
08:25 1012 29.88 842 24.86 7.1 44.8 45 -3.9 25.1
08:30 1012 29.88 841 24.83 7.4 45.2 46 -3.6 25.5
08:35 1012 29.88 841 24.83 7.7 45.8 45 -3.4 25.9
08:40 1012 29.88 841 24.83 7.9 46.3 43 -3.8 25.2
08:45 1012 29.88 841 24.83 8.2 46.7 43 -3.6 25.4
08:50 1012 29.88 841 24.83 8.3 47 42 -3.7 25.4
08:55 1012 29.88 841 24.83 8.5 47.3 42 -3.6 25.6
09:00 1012 29.88 841 24.83 8.8 47.8 41 -3.8 25.2
09:05 1012 29.88 841 24.83 8.7 47.7 42 -3.5 25.6
09:10 1012 29.88 841 24.83 8.9 48.1 41 -3.6 25.6
09:15 1012 29.88 841 24.83 9 48.2 41 -3.6 25.5
09:20 1012 29.88 841 24.83 9 48.2 41 -3.7 25.4
09:25 1012 29.88 841 24.83 9.1 48.4 39 -4.1 24.7
09:30 1012 29.88 841 24.83 9.4 48.8 38 -4.4 24.1
09:35 1012 29.88 841 24.83 9.4 49 37 -4.6 23.7
09:40 1012 29.88 841 24.83 9.3 48.8 39 -3.9 25
09:45 1012 29.88 841 24.83 9.3 48.8 39 -4 24.8
09:50 1012 29.88 841 24.83 9.3 48.7 39 -4 24.8
09:55 1012 29.88 841 24.83 9.4 48.8 39 -3.9 25
10:00 1012 29.88 841 24.83 10 49.9 39 -3.4 25.9
10:05 1011 29.85 841 24.83 10.7 51.3 37 -3.5 25.7
10:10 1011 29.85 840 24.81 11.2 52.1 35 -3.5 25.6
10:15 1011 29.85 840 24.81 11.2 52.1 35 -3.8 25.2
10:20 1011 29.85 840 24.81 11 51.8 34 -4.1 24.6
10:25 1011 29.85 840 24.81 11.2 52.1 35 -3.8 25.2
10:30 1011 29.85 840 24.81 11.3 52.3 35 -3.6 25.5
10:35 1011 29.85 840 24.81 11.3 52.3 35 -3.4 25.9
10:40 1011 29.85 840 24.81 11.9 53.3 34 -3.3 26.1
10:45 1011 29.85 840 24.81 11.8 53.2 35 -3.2 26.3
10:50 1011 29.85 840 24.81 12.1 53.8 34 -3.1 26.5
10:55 1011 29.85 840 24.81 12.3 54.1 34 -3.1 26.4
11:00 1011 29.85 840 24.81 12.8 55 33 -3.1 26.4
11:05 1010 29.83 840 24.81 13.2 55.7 31 -3.7 25.4
11:10 1010 29.83 840 24.81 13.6 56.5 30 -3.5 25.7
11:15 1010 29.83 840 24.81 13 55.4 32 -3.3 26.1
11:20 1010 29.83 840 24.81 13.1 55.6 30 -4.1 24.7
11:25 1010 29.83 839 24.78 13.5 56.4 29 -4.2 24.4
11:30 1010 29.83 839 24.78 14 57.3 27 -4.7 23.6
11:35 1010 29.83 839 24.78 14 57.2 27 -4.7 23.5
11:40 1010 29.83 839 24.78 13.7 56.7 27 -4.9 23.2
11:45 1010 29.83 839 24.78 14 57.2 27 -4.9 23.2
11:50 1010 29.83 839 24.78 14 57.3 27 -4.5 23.9
11:55 1010 29.83 839 24.78 13.9 57 27 -4.5 23.9
12:00 1010 29.83 839 24.78 14 57.3 28 -4 24.7
12:05 1010 29.83 839 24.78 14.2 57.6 31 -2.8 27
12:10 1010 29.83 839 24.78 14.6 58.2 31 -2.4 27.6
12:15 1010 29.83 839 24.78 14.4 58 31 -2.5 27.5
12:20 1010 29.83 839 24.78 14.2 57.6 34 -1.3 29.7
12:25 1010 29.83 839 24.78 13.5 56.3 35 -1.4 29.4
12:30 1010 29.83 839 24.78 13.6 56.4 35 -1.5 29.3
12:35 1010 29.83 839 24.78 12.9 55.2 38 -1.1 30
12:40 1010 29.83 839 24.78 12.9 55.2 34 -2.5 27.6
12:45 1010 29.83 839 24.78 12.8 55 34 -2.5 27.6
12:50 1010 29.83 839 24.78 12.8 55.1 34 -2.5 27.6
12:55 1010 29.83 839 24.78 12.6 54.7 35 -2.5 27.4
13:00 1010 29.83 839 24.78 13.1 55.6 33 -2.8 26.9
13:05 1010 29.83 839 24.78 13.2 55.8 33 -2.7 27.2
13:10 1010 29.83 839 24.78 13.4 56 32 -2.8 27
13:15 1010 29.83 839 24.78 13.2 55.8 32 -3 26.6
13:20 1010 29.83 839 24.78 13.5 56.4 31 -3.3 26
13:25 1009 29.8 839 24.78 13.8 56.9 29 -4 24.8
13:30 1009 29.8 838 24.75 13.9 57.1 29 -3.9 25
13:35 1009 29.8 839 24.78 13.6 56.6 31 -3.2 26.3
13:40 1009 29.8 839 24.78 13.7 56.7 27 -5 23
13:45 1009 29.8 838 24.75 13.7 56.7 27 -4.9 23.2
13:50 1009 29.8 838 24.75 13.7 56.7 27 -4.8 23.3
13:55 1009 29.8 838 24.75 13.6 56.5 28 -4.6 23.8
14:00 1009 29.8 838 24.75 13.7 56.6 26 -5.6 21.9
14:05 1009 29.8 838 24.75 13.8 56.8 27 -5 23
14:10 1009 29.8 838 24.75 13.9 57 27 -4.7 23.5
14:15 1009 29.8 838 24.75 14.1 57.3 26 -5 23.1
14:20 1009 29.8 838 24.75 14 57.3 26 -5.3 22.5
14:25 1009 29.8 838 24.75 14.1 57.4 26 -5.2 22.7
14:30 1009 29.8 838 24.75 14.1 57.4 26 -5.1 22.8
14:35 1009 29.8 838 24.75 14.1 57.4 26 -5.2 22.7
14:40 1009 29.8 838 24.75 14.2 57.5 26 -4.9 23.1
14:45 1009 29.8 838 24.75 14.1 57.3 26 -4.9 23.1
14:50 1009 29.8 838 24.75 14.3 57.7 26 -5 22.9
14:55 1009 29.8 838 24.75 14.4 58 26 -4.6 23.8
15:00 1009 29.8 838 24.75 14.6 58.3 26 -4.5 23.9
15:05 1009 29.8 838 24.75 14.2 57.6 27 -4.3 24.2
15:10 1009 29.8 838 24.75 13.8 56.9 28 -4.5 23.9
15:15 1009 29.8 838 24.75 13.8 56.8 28 -4.3 24.3
15:20 1009 29.8 838 24.75 14.1 57.4 28 -4 24.7
15:25 1009 29.8 838 24.75 14.1 57.4 27 -4.4 24.1
15:30 1009 29.8 838 24.75 13.9 56.9 27 -4.6 23.7
15:35 1008 29.77 838 24.75 13.8 56.9 28 -4.4 24
15:40 1008 29.77 838 24.75 13.8 56.8 27 -4.7 23.6
15:45 1008 29.77 838 24.75 13.8 56.9 26 -5.2 22.6
15:50 1008 29.77 838 24.75 13.8 56.9 27 -4.8 23.3
15:55 1008 29.77 838 24.75 13.6 56.5 29 -4.2 24.4
16:00 1008 29.77 838 24.75 13.5 56.3 29 -4.1 24.6
16:05 1008 29.77 838 24.75 13.5 56.4 29 -4 24.8
16:10 1008 29.77 837 24.72 13.5 56.3 27 -5 23
16:15 1008 29.77 837 24.72 13.7 56.7 28 -4.6 23.7
16:20 1008 29.77 837 24.72 13.9 57.1 27 -4.5 23.9
16:25 1008 29.77 837 24.72 13.9 56.9 27 -4.7 23.5
16:30 1008 29.77 837 24.72 13.7 56.7 28 -4.4 24
16:35 1008 29.77 837 24.72 13.7 56.7 29 -4.1 24.6
16:40 1008 29.77 837 24.72 13.7 56.7 28 -4.4 24.1
16:45 1008 29.77 837 24.72 14.2 57.5 27 -4.7 23.6
16:50 1008 29.77 837 24.72 14.2 57.5 26 -5 23.1
16:55 1008 29.77 837 24.72 13.8 56.9 27 -4.8 23.3
17:00 1008 29.77 837 24.72 13.8 56.8 28 -4.4 24.1
17:05 1008 29.77 837 24.72 13.7 56.6 29 -4.1 24.5
17:10 1008 29.77 837 24.72 13.5 56.3 28 -4.5 23.8
17:15 1008 29.77 837 24.72 13.3 56 29 -4.1 24.5
17:20 1008 29.77 837 24.72 13.4 56.1 30 -3.9 24.9
17:25 1008 29.77 837 24.72 13.6 56.4 28 -4.3 24.2
17:30 1008 29.77 837 24.72 13.7 56.6 28 -4.5 23.9
17:35 1008 29.77 837 24.72 14 57.2 28 -4.1 24.7
17:40 1008 29.77 837 24.72 13.7 56.7 34 -1.6 29.1
17:45 1008 29.77 837 24.72 12.6 54.7 39 -1 30.2
17:50 1008 29.77 837 24.72 12.3 54.1 40 -0.8 30.6
17:55 1008 29.77 837 24.72 12 53.6 40 -1 30.1
18:00 1008 29.77 838 24.75 12.1 53.8 40 -1 30.2
18:05 1008 29.77 838 24.75 12 53.5 45 0.5 32.9
18:10 1008 29.77 838 24.75 11.4 52.6 45 -0.2 31.7
18:15 1008 29.77 838 24.75 11.8 53.2 44 -0 31.9
18:20 1009 29.8 838 24.75 12.2 54 42 -0.3 31.5
18:25 1008 29.77 838 24.75 12.2 53.9 41 -0.5 31
18:30 1009 29.8 838 24.75 11.9 53.5 42 -0.5 31.1
18:35 1009 29.8 838 24.75 11.5 52.7 44 -0.4 31.3
18:40 1009 29.8 838 24.75 11.1 52 44 -0.5 31
18:45 1009 29.8 838 24.75 10.9 51.6 45 -0.6 30.9
18:50 1009 29.8 838 24.75 10.7 51.3 46 -0.5 31.2
18:55 1009 29.8 838 24.75 10.6 51.2 45 -0.8 30.6
19:00 1009 29.8 838 24.75 10.5 51 45 -0.9 30.3
19:05 1009 29.8 838 24.75 10.5 50.9 45 -0.9 30.4
19:10 1009 29.8 838 24.75 10.5 50.9 45 -0.9 30.4
19:15 1008 29.77 838 24.75 10.4 50.8 45 -0.9 30.5
19:20 1009 29.8 838 24.75 10.7 51.2 45 -0.7 30.7
19:25 1009 29.8 838 24.75 11 51.7 44 -0.7 30.8
19:30 1009 29.8 838 24.75 11.1 51.9 44 -0.8 30.6
19:35 1009 29.8 838 24.75 11.1 52 48 0.6 33.1
19:40 1009 29.8 838 24.75 10.1 50.2 58 2.3 36.1
19:45 1009 29.8 838 24.75 9.2 48.6 61 2.1 35.8
19:50 1009 29.8 838 24.75 9.1 48.3 60 1.7 35.1
19:55 1009 29.8 838 24.75 9 48.2 60 1.7 35
20:00 1009 29.8 838 24.75 9.1 48.4 65 3 37.4
20:05 1009 29.8 838 24.75 8.3 46.9 73 3.8 38.8
20:10 1009 29.8 838 24.75 7.6 45.6 72 2.9 37.3
20:15 1009 29.8 838 24.75 7.5 45.6 71 2.6 36.8
20:20 1009 29.8 838 24.75 7.6 45.6 71 2.6 36.7
20:25 1009 29.8 838 24.75 7.6 45.7 68 2.2 35.9
20:30 1009 29.8 838 24.75 7.6 45.7 69 2.2 36
20:35 1009 29.8 838 24.75 7.5 45.4 69 2.2 35.9
20:40 1009 29.8 838 24.75 7.4 45.2 69 2.1 35.8
20:45 1009 29.8 838 24.75 7.1 44.8 70 2 35.6
20:50 1009 29.8 838 24.75 7 44.7 70 1.9 35.5
20:55 1009 29.8 838 24.75 6.9 44.5 72 2.2 35.9
21:00 1009 29.8 838 24.75 6.7 44 72 1.9 35.5
21:05 1009 29.8 838 24.75 6.8 44.2 70 1.6 35
21:10 1009 29.8 838 24.75 7.2 44.9 66 1.3 34.4
21:15 1009 29.8 838 24.75 7.3 45.1 67 1.6 34.9
21:20 1009 29.8 838 24.75 6.9 44.4 68 1.5 34.6
21:25 1009 29.8 838 24.75 6.7 44 69 1.4 34.6
21:30 1009 29.8 838 24.75 6.6 43.9 68 1.2 34.1
21:35 1009 29.8 838 24.75 6.6 43.9 68 1.2 34.1
21:40 1009 29.8 838 24.75 6.6 43.8 68 1.1 34.1
21:45 1009 29.8 838 24.75 6.6 43.9 67 1 33.7
21:50 1009 29.8 838 24.75 6.7 44 68 1.2 34.2
21:55 1009 29.8 838 24.75 6.6 43.9 66 0.7 33.3
22:00 1009 29.8 839 24.78 6.8 44.2 65 0.8 33.4
22:05 1010 29.83 839 24.78 7.1 44.7 62 0.4 32.8
22:10 1010 29.83 839 24.78 7.2 44.9 65 1 33.9
22:15 1010 29.83 839 24.78 6.8 44.2 66 1 33.8
22:20 1009 29.8 838 24.75 6.5 43.8 67 1 33.8
22:25 1009 29.8 838 24.75 6.5 43.8 67 0.9 33.7
22:30 1009 29.8 838 24.75 6.5 43.7 68 1 33.8
22:35 1009 29.8 839 24.78 6.5 43.6 69 1.1 34.1
22:40 1009 29.8 839 24.78 6.2 43.1 71 1.3 34.4
22:45 1010 29.83 839 24.78 6 42.8 70 1 33.8
22:50 1010 29.83 839 24.78 6.2 43.1 70 1.1 34
22:55 1010 29.83 839 24.78 6 42.8 73 1.5 34.7
23:00 1010 29.83 839 24.78 5.5 41.9 74 1.3 34.3
23:05 1010 29.83 839 24.78 5.5 41.9 74 1.2 34.2
23:10 1010 29.83 839 24.78 5.6 42 74 1.2 34.2
23:15 1009 29.8 839 24.78 5.6 42 74 1.3 34.3
23:20 1009 29.8 839 24.78 5.6 42.1 74 1.4 34.5
23:25 1009 29.8 838 24.75 5.7 42.2 74 1.5 34.7
23:30 1009 29.8 838 24.75 5.6 42.1 75 1.5 34.7
23:35 1009 29.8 838 24.75 5.5 41.8 76 1.5 34.7
23:40 1009 29.8 838 24.75 5.3 41.6 76 1.5 34.6
23:45 1009 29.8 838 24.75 5.3 41.5 76 1.4 34.5
23:50 1009 29.8 838 24.75 5.2 41.3 77 1.5 34.7
23:55 1009 29.8 838 24.75 4.9 40.8 79 1.5 34.7
24:00 1009 29.8 839 24.78 4.7 40.4 79 1.4 34.5